sensor_id;sensor_type;location;lat;lon;timestamp;P1;durP1;ratioP1;P2;durP2;ratioP2
71715;SDS011;59568;52.128;5.434;2023-04-15T00:01:35;8.63;;;3.95;;
71715;SDS011;59568;52.128;5.434;2023-04-15T00:04:02;7.65;;;4.47;;
71715;SDS011;59568;52.128;5.434;2023-04-15T00:06:30;9.80;;;3.88;;
71715;SDS011;59568;52.128;5.434;2023-04-15T00:08:57;10.30;;;4.63;;
71715;SDS011;59568;52.128;5.434;2023-04-15T00:11:24;5.25;;;3.20;;
71715;SDS011;59568;52.128;5.434;2023-04-15T00:13:51;7.20;;;4.18;;
71715;SDS011;59568;52.128;5.434;2023-04-15T00:16:18;7.63;;;3.80;;
71715;SDS011;59568;52.128;5.434;2023-04-15T00:18:45;7.53;;;3.50;;
71715;SDS011;59568;52.128;5.434;2023-04-15T00:21:12;6.60;;;3.67;;
71715;SDS011;59568;52.128;5.434;2023-04-15T00:23:39;8.13;;;4.32;;
71715;SDS011;59568;52.128;5.434;2023-04-15T00:26:06;6.18;;;3.95;;
71715;SDS011;59568;52.128;5.434;2023-04-15T00:28:34;5.05;;;3.22;;
71715;SDS011;59568;52.128;5.434;2023-04-15T00:31:01;5.32;;;3.88;;
71715;SDS011;59568;52.128;5.434;2023-04-15T00:33:28;9.23;;;4.03;;
71715;SDS011;59568;52.128;5.434;2023-04-15T00:35:55;8.52;;;3.78;;
71715;SDS011;59568;52.128;5.434;2023-04-15T00:38:22;5.75;;;3.38;;
71715;SDS011;59568;52.128;5.434;2023-04-15T00:40:49;10.13;;;3.92;;
71715;SDS011;59568;52.128;5.434;2023-04-15T00:43:16;6.90;;;3.45;;
71715;SDS011;59568;52.128;5.434;2023-04-15T00:45:44;6.40;;;4.00;;
71715;SDS011;59568;52.128;5.434;2023-04-15T00:48:12;8.57;;;3.65;;
71715;SDS011;59568;52.128;5.434;2023-04-15T00:50:39;6.18;;;3.67;;
71715;SDS011;59568;52.128;5.434;2023-04-15T00:53:06;9.65;;;3.80;;
71715;SDS011;59568;52.128;5.434;2023-04-15T00:55:33;7.65;;;3.78;;
71715;SDS011;59568;52.128;5.434;2023-04-15T00:58:01;6.83;;;3.43;;
71715;SDS011;59568;52.128;5.434;2023-04-15T01:00:28;5.88;;;3.42;;
71715;SDS011;59568;52.128;5.434;2023-04-15T01:02:56;8.93;;;3.60;;
71715;SDS011;59568;52.128;5.434;2023-04-15T01:05:24;7.10;;;3.40;;
71715;SDS011;59568;52.128;5.434;2023-04-15T01:07:51;7.20;;;3.75;;
71715;SDS011;59568;52.128;5.434;2023-04-15T01:10:18;6.93;;;4.00;;
71715;SDS011;59568;52.128;5.434;2023-04-15T01:12:45;6.82;;;3.50;;
71715;SDS011;59568;52.128;5.434;2023-04-15T01:15:12;7.72;;;3.95;;
71715;SDS011;59568;52.128;5.434;2023-04-15T01:17:39;6.60;;;3.50;;
71715;SDS011;59568;52.128;5.434;2023-04-15T01:20:06;6.97;;;3.63;;
71715;SDS011;59568;52.128;5.434;2023-04-15T01:22:35;6.30;;;3.70;;
71715;SDS011;59568;52.128;5.434;2023-04-15T01:25:14;8.55;;;4.03;;
71715;SDS011;59568;52.128;5.434;2023-04-15T01:27:45;9.00;;;3.92;;
71715;SDS011;59568;52.128;5.434;2023-04-15T01:30:11;9.23;;;4.28;;
71715;SDS011;59568;52.128;5.434;2023-04-15T01:32:38;7.78;;;3.65;;
71715;SDS011;59568;52.128;5.434;2023-04-15T01:35:05;7.83;;;3.70;;
71715;SDS011;59568;52.128;5.434;2023-04-15T01:37:33;6.40;;;3.38;;
71715;SDS011;59568;52.128;5.434;2023-04-15T01:40:00;6.00;;;3.60;;
71715;SDS011;59568;52.128;5.434;2023-04-15T01:42:27;6.45;;;3.30;;
71715;SDS011;59568;52.128;5.434;2023-04-15T01:44:54;7.22;;;4.00;;
71715;SDS011;59568;52.128;5.434;2023-04-15T01:47:21;6.93;;;3.97;;
71715;SDS011;59568;52.128;5.434;2023-04-15T01:49:48;5.60;;;3.58;;
71715;SDS011;59568;52.128;5.434;2023-04-15T01:52:15;6.07;;;3.47;;
71715;SDS011;59568;52.128;5.434;2023-04-15T01:54:41;6.88;;;3.40;;
71715;SDS011;59568;52.128;5.434;2023-04-15T01:57:08;6.70;;;3.80;;
71715;SDS011;59568;52.128;5.434;2023-04-15T01:59:36;9.37;;;4.13;;
71715;SDS011;59568;52.128;5.434;2023-04-15T02:02:03;5.22;;;3.22;;
71715;SDS011;59568;52.128;5.434;2023-04-15T02:04:31;8.10;;;3.55;;
71715;SDS011;59568;52.128;5.434;2023-04-15T02:06:58;6.93;;;3.72;;
71715;SDS011;59568;52.128;5.434;2023-04-15T02:09:25;6.43;;;3.40;;
71715;SDS011;59568;52.128;5.434;2023-04-15T02:11:52;8.33;;;3.80;;
71715;SDS011;59568;52.128;5.434;2023-04-15T02:14:19;6.05;;;3.97;;
71715;SDS011;59568;52.128;5.434;2023-04-15T02:16:46;6.90;;;3.45;;
71715;SDS011;59568;52.128;5.434;2023-04-15T02:19:13;6.28;;;3.72;;
71715;SDS011;59568;52.128;5.434;2023-04-15T02:21:41;7.35;;;3.65;;
71715;SDS011;59568;52.128;5.434;2023-04-15T02:24:08;5.83;;;3.60;;
71715;SDS011;59568;52.128;5.434;2023-04-15T02:26:35;5.70;;;3.25;;
71715;SDS011;59568;52.128;5.434;2023-04-15T02:29:02;6.72;;;3.88;;
71715;SDS011;59568;52.128;5.434;2023-04-15T02:31:29;7.15;;;3.65;;
71715;SDS011;59568;52.128;5.434;2023-04-15T02:33:59;5.80;;;3.97;;
71715;SDS011;59568;52.128;5.434;2023-04-15T02:36:28;8.53;;;3.67;;
71715;SDS011;59568;52.128;5.434;2023-04-15T02:38:57;7.55;;;3.90;;
71715;SDS011;59568;52.128;5.434;2023-04-15T02:41:24;6.63;;;4.47;;
71715;SDS011;59568;52.128;5.434;2023-04-15T02:43:53;9.68;;;4.30;;
71715;SDS011;59568;52.128;5.434;2023-04-15T02:46:20;9.27;;;3.83;;
71715;SDS011;59568;52.128;5.434;2023-04-15T02:48:48;7.23;;;3.73;;
71715;SDS011;59568;52.128;5.434;2023-04-15T02:51:18;7.38;;;3.70;;
71715;SDS011;59568;52.128;5.434;2023-04-15T02:53:46;6.47;;;4.47;;
71715;SDS011;59568;52.128;5.434;2023-04-15T02:56:14;5.32;;;3.05;;
71715;SDS011;59568;52.128;5.434;2023-04-15T02:58:43;6.80;;;3.65;;
71715;SDS011;59568;52.128;5.434;2023-04-15T03:01:11;5.57;;;3.17;;
71715;SDS011;59568;52.128;5.434;2023-04-15T03:03:38;7.05;;;3.38;;
71715;SDS011;59568;52.128;5.434;2023-04-15T03:06:05;6.65;;;3.40;;
71715;SDS011;59568;52.128;5.434;2023-04-15T03:08:32;9.02;;;3.70;;
71715;SDS011;59568;52.128;5.434;2023-04-15T03:10:59;8.48;;;3.92;;
71715;SDS011;59568;52.128;5.434;2023-04-15T03:13:27;8.50;;;3.93;;
71715;SDS011;59568;52.128;5.434;2023-04-15T03:15:54;10.13;;;3.85;;
71715;SDS011;59568;52.128;5.434;2023-04-15T03:18:22;7.60;;;4.10;;
71715;SDS011;59568;52.128;5.434;2023-04-15T03:20:49;6.75;;;3.58;;
71715;SDS011;59568;52.128;5.434;2023-04-15T03:23:16;6.93;;;3.88;;
71715;SDS011;59568;52.128;5.434;2023-04-15T03:25:43;6.43;;;3.27;;
71715;SDS011;59568;52.128;5.434;2023-04-15T03:28:10;6.50;;;3.85;;
71715;SDS011;59568;52.128;5.434;2023-04-15T03:30:37;8.25;;;4.25;;
71715;SDS011;59568;52.128;5.434;2023-04-15T03:33:04;5.50;;;3.90;;
71715;SDS011;59568;52.128;5.434;2023-04-15T03:35:31;9.68;;;3.63;;
71715;SDS011;59568;52.128;5.434;2023-04-15T03:37:58;6.30;;;3.87;;
71715;SDS011;59568;52.128;5.434;2023-04-15T03:40:25;7.85;;;4.10;;
71715;SDS011;59568;52.128;5.434;2023-04-15T03:42:52;8.02;;;3.92;;
71715;SDS011;59568;52.128;5.434;2023-04-15T03:45:19;6.22;;;3.92;;
71715;SDS011;59568;52.128;5.434;2023-04-15T03:47:45;7.22;;;3.97;;
71715;SDS011;59568;52.128;5.434;2023-04-15T03:50:13;8.47;;;3.93;;
71715;SDS011;59568;52.128;5.434;2023-04-15T03:52:40;8.57;;;4.20;;
71715;SDS011;59568;52.128;5.434;2023-04-15T03:55:07;6.30;;;4.20;;
71715;SDS011;59568;52.128;5.434;2023-04-15T03:57:35;6.53;;;3.92;;
71715;SDS011;59568;52.128;5.434;2023-04-15T04:00:06;6.70;;;3.88;;
71715;SDS011;59568;52.128;5.434;2023-04-15T04:02:37;9.27;;;4.17;;
71715;SDS011;59568;52.128;5.434;2023-04-15T04:05:04;8.98;;;3.97;;
71715;SDS011;59568;52.128;5.434;2023-04-15T04:07:31;10.40;;;3.95;;
71715;SDS011;59568;52.128;5.434;2023-04-15T04:09:58;6.25;;;4.15;;
71715;SDS011;59568;52.128;5.434;2023-04-15T04:12:25;8.18;;;4.20;;
71715;SDS011;59568;52.128;5.434;2023-04-15T04:14:52;7.23;;;4.20;;
71715;SDS011;59568;52.128;5.434;2023-04-15T04:17:19;7.88;;;4.38;;
71715;SDS011;59568;52.128;5.434;2023-04-15T04:19:46;5.90;;;3.70;;
71715;SDS011;59568;52.128;5.434;2023-04-15T04:22:13;8.00;;;3.88;;
71715;SDS011;59568;52.128;5.434;2023-04-15T04:24:40;6.22;;;3.75;;
71715;SDS011;59568;52.128;5.434;2023-04-15T04:27:07;7.63;;;3.77;;
71715;SDS011;59568;52.128;5.434;2023-04-15T04:29:34;7.15;;;3.65;;
71715;SDS011;59568;52.128;5.434;2023-04-15T04:32:01;7.03;;;4.43;;
71715;SDS011;59568;52.128;5.434;2023-04-15T04:34:28;9.77;;;4.70;;
71715;SDS011;59568;52.128;5.434;2023-04-15T04:36:55;9.05;;;4.75;;
71715;SDS011;59568;52.128;5.434;2023-04-15T04:39:22;10.30;;;4.17;;
71715;SDS011;59568;52.128;5.434;2023-04-15T04:41:49;6.05;;;3.40;;
71715;SDS011;59568;52.128;5.434;2023-04-15T04:44:17;8.95;;;3.95;;
71715;SDS011;59568;52.128;5.434;2023-04-15T04:46:44;9.77;;;4.68;;
71715;SDS011;59568;52.128;5.434;2023-04-15T04:49:11;6.25;;;4.05;;
71715;SDS011;59568;52.128;5.434;2023-04-15T04:51:38;9.67;;;4.50;;
71715;SDS011;59568;52.128;5.434;2023-04-15T04:54:05;8.00;;;4.45;;
71715;SDS011;59568;52.128;5.434;2023-04-15T04:56:33;9.25;;;4.03;;
71715;SDS011;59568;52.128;5.434;2023-04-15T04:59:00;8.18;;;4.22;;
71715;SDS011;59568;52.128;5.434;2023-04-15T05:01:27;7.72;;;4.60;;
71715;SDS011;59568;52.128;5.434;2023-04-15T05:03:54;6.53;;;3.93;;
71715;SDS011;59568;52.128;5.434;2023-04-15T05:06:22;7.32;;;4.05;;
71715;SDS011;59568;52.128;5.434;2023-04-15T05:08:48;9.77;;;4.18;;
71715;SDS011;59568;52.128;5.434;2023-04-15T05:11:16;14.13;;;5.10;;
71715;SDS011;59568;52.128;5.434;2023-04-15T05:13:43;7.47;;;3.97;;
71715;SDS011;59568;52.128;5.434;2023-04-15T05:16:10;6.03;;;3.87;;
71715;SDS011;59568;52.128;5.434;2023-04-15T05:18:37;6.53;;;4.30;;
71715;SDS011;59568;52.128;5.434;2023-04-15T05:21:04;6.03;;;4.40;;
71715;SDS011;59568;52.128;5.434;2023-04-15T05:23:31;7.68;;;4.38;;
71715;SDS011;59568;52.128;5.434;2023-04-15T05:25:58;7.25;;;4.22;;
71715;SDS011;59568;52.128;5.434;2023-04-15T05:28:24;9.73;;;4.57;;
71715;SDS011;59568;52.128;5.434;2023-04-15T05:30:51;8.85;;;4.63;;
71715;SDS011;59568;52.128;5.434;2023-04-15T05:33:18;6.18;;;4.18;;
71715;SDS011;59568;52.128;5.434;2023-04-15T05:35:45;7.50;;;4.10;;
71715;SDS011;59568;52.128;5.434;2023-04-15T05:38:12;7.93;;;4.28;;
71715;SDS011;59568;52.128;5.434;2023-04-15T05:40:38;6.97;;;4.10;;
71715;SDS011;59568;52.128;5.434;2023-04-15T05:43:06;6.90;;;3.95;;
71715;SDS011;59568;52.128;5.434;2023-04-15T05:45:32;8.85;;;4.40;;
71715;SDS011;59568;52.128;5.434;2023-04-15T05:47:59;7.03;;;4.05;;
71715;SDS011;59568;52.128;5.434;2023-04-15T05:50:26;7.43;;;4.60;;
71715;SDS011;59568;52.128;5.434;2023-04-15T05:52:53;10.93;;;5.23;;
71715;SDS011;59568;52.128;5.434;2023-04-15T05:55:21;10.82;;;5.43;;
71715;SDS011;59568;52.128;5.434;2023-04-15T05:57:48;9.70;;;5.60;;
71715;SDS011;59568;52.128;5.434;2023-04-15T06:00:15;9.30;;;5.18;;
71715;SDS011;59568;52.128;5.434;2023-04-15T06:02:41;8.57;;;5.18;;
71715;SDS011;59568;52.128;5.434;2023-04-15T06:05:09;10.97;;;5.03;;
71715;SDS011;59568;52.128;5.434;2023-04-15T06:07:37;7.15;;;4.47;;
71715;SDS011;59568;52.128;5.434;2023-04-15T06:10:04;7.72;;;4.63;;
71715;SDS011;59568;52.128;5.434;2023-04-15T06:12:32;8.10;;;3.95;;
71715;SDS011;59568;52.128;5.434;2023-04-15T06:14:59;8.73;;;4.82;;
71715;SDS011;59568;52.128;5.434;2023-04-15T06:17:26;8.67;;;4.87;;
71715;SDS011;59568;52.128;5.434;2023-04-15T06:19:53;6.85;;;4.32;;
71715;SDS011;59568;52.128;5.434;2023-04-15T06:22:21;9.00;;;4.45;;
71715;SDS011;59568;52.128;5.434;2023-04-15T06:24:49;9.10;;;4.70;;
71715;SDS011;59568;52.128;5.434;2023-04-15T06:27:17;8.00;;;5.13;;
71715;SDS011;59568;52.128;5.434;2023-04-15T06:29:44;8.13;;;4.90;;
71715;SDS011;59568;52.128;5.434;2023-04-15T06:32:11;7.72;;;5.13;;
71715;SDS011;59568;52.128;5.434;2023-04-15T06:34:38;8.00;;;4.63;;
71715;SDS011;59568;52.128;5.434;2023-04-15T06:37:05;7.25;;;4.50;;
71715;SDS011;59568;52.128;5.434;2023-04-15T06:39:32;8.43;;;5.35;;
71715;SDS011;59568;52.128;5.434;2023-04-15T06:41:59;7.27;;;4.53;;
71715;SDS011;59568;52.128;5.434;2023-04-15T06:44:26;8.75;;;4.82;;
71715;SDS011;59568;52.128;5.434;2023-04-15T06:46:57;7.65;;;4.53;;
71715;SDS011;59568;52.128;5.434;2023-04-15T06:49:24;8.10;;;4.63;;
71715;SDS011;59568;52.128;5.434;2023-04-15T06:51:52;11.35;;;5.43;;
71715;SDS011;59568;52.128;5.434;2023-04-15T06:54:19;9.63;;;5.00;;
71715;SDS011;59568;52.128;5.434;2023-04-15T06:56:46;8.95;;;4.93;;
71715;SDS011;59568;52.128;5.434;2023-04-15T06:59:13;7.38;;;4.57;;
71715;SDS011;59568;52.128;5.434;2023-04-15T07:01:40;10.13;;;5.15;;
71715;SDS011;59568;52.128;5.434;2023-04-15T07:04:07;7.50;;;5.30;;
71715;SDS011;59568;52.128;5.434;2023-04-15T07:06:34;8.20;;;4.87;;
71715;SDS011;59568;52.128;5.434;2023-04-15T07:09:01;7.35;;;4.95;;
71715;SDS011;59568;52.128;5.434;2023-04-15T07:11:30;7.85;;;5.38;;
71715;SDS011;59568;52.128;5.434;2023-04-15T07:13:57;8.57;;;4.60;;
71715;SDS011;59568;52.128;5.434;2023-04-15T07:16:24;9.90;;;5.03;;
71715;SDS011;59568;52.128;5.434;2023-04-15T07:18:54;7.70;;;4.60;;
71715;SDS011;59568;52.128;5.434;2023-04-15T07:21:21;9.10;;;5.10;;
71715;SDS011;59568;52.128;5.434;2023-04-15T07:23:48;8.50;;;4.70;;
71715;SDS011;59568;52.128;5.434;2023-04-15T07:26:15;7.32;;;4.95;;
71715;SDS011;59568;52.128;5.434;2023-04-15T07:28:42;9.60;;;5.20;;
71715;SDS011;59568;52.128;5.434;2023-04-15T07:31:09;9.27;;;5.60;;
71715;SDS011;59568;52.128;5.434;2023-04-15T07:33:36;9.63;;;5.20;;
71715;SDS011;59568;52.128;5.434;2023-04-15T07:36:03;7.30;;;4.85;;
71715;SDS011;59568;52.128;5.434;2023-04-15T07:38:30;8.80;;;4.82;;
71715;SDS011;59568;52.128;5.434;2023-04-15T07:40:57;7.55;;;4.70;;
71715;SDS011;59568;52.128;5.434;2023-04-15T07:43:25;8.63;;;4.40;;
71715;SDS011;59568;52.128;5.434;2023-04-15T07:45:52;8.45;;;3.75;;
71715;SDS011;59568;52.128;5.434;2023-04-15T07:48:19;5.90;;;3.75;;
71715;SDS011;59568;52.128;5.434;2023-04-15T07:50:45;5.90;;;3.67;;
71715;SDS011;59568;52.128;5.434;2023-04-15T07:53:12;6.38;;;3.60;;
71715;SDS011;59568;52.128;5.434;2023-04-15T07:55:40;4.47;;;3.10;;
71715;SDS011;59568;52.128;5.434;2023-04-15T07:58:06;9.18;;;3.53;;
71715;SDS011;59568;52.128;5.434;2023-04-15T08:00:33;6.88;;;2.85;;
71715;SDS011;59568;52.128;5.434;2023-04-15T08:03:00;6.68;;;3.03;;
71715;SDS011;59568;52.128;5.434;2023-04-15T08:05:28;5.28;;;3.25;;
71715;SDS011;59568;52.128;5.434;2023-04-15T08:07:55;5.83;;;2.97;;
71715;SDS011;59568;52.128;5.434;2023-04-15T08:10:22;7.45;;;3.30;;
71715;SDS011;59568;52.128;5.434;2023-04-15T08:12:49;5.75;;;3.25;;
71715;SDS011;59568;52.128;5.434;2023-04-15T08:15:19;4.82;;;2.70;;
71715;SDS011;59568;52.128;5.434;2023-04-15T08:17:46;5.03;;;2.55;;
71715;SDS011;59568;52.128;5.434;2023-04-15T08:20:13;5.50;;;2.83;;
71715;SDS011;59568;52.128;5.434;2023-04-15T08:22:40;6.50;;;2.75;;
71715;SDS011;59568;52.128;5.434;2023-04-15T08:25:08;5.82;;;2.67;;
71715;SDS011;59568;52.128;5.434;2023-04-15T08:27:35;6.03;;;2.80;;
71715;SDS011;59568;52.128;5.434;2023-04-15T08:30:03;4.05;;;2.30;;
71715;SDS011;59568;52.128;5.434;2023-04-15T08:32:30;5.67;;;2.50;;
71715;SDS011;59568;52.128;5.434;2023-04-15T08:34:57;6.18;;;2.30;;
71715;SDS011;59568;52.128;5.434;2023-04-15T08:37:24;4.80;;;2.47;;
71715;SDS011;59568;52.128;5.434;2023-04-15T08:39:52;4.30;;;2.17;;
71715;SDS011;59568;52.128;5.434;2023-04-15T08:42:22;3.47;;;2.10;;
71715;SDS011;59568;52.128;5.434;2023-04-15T08:44:53;4.83;;;1.90;;
71715;SDS011;59568;52.128;5.434;2023-04-15T08:47:21;3.63;;;2.00;;
71715;SDS011;59568;52.128;5.434;2023-04-15T08:49:54;4.25;;;2.33;;
71715;SDS011;59568;52.128;5.434;2023-04-15T08:52:24;3.88;;;2.10;;
71715;SDS011;59568;52.128;5.434;2023-04-15T08:54:54;4.15;;;2.17;;
71715;SDS011;59568;52.128;5.434;2023-04-15T08:57:27;3.50;;;2.00;;
71715;SDS011;59568;52.128;5.434;2023-04-15T08:59:54;8.00;;;3.25;;
71715;SDS011;59568;52.128;5.434;2023-04-15T09:02:22;4.38;;;2.83;;
71715;SDS011;59568;52.128;5.434;2023-04-15T09:04:51;5.13;;;2.80;;
71715;SDS011;59568;52.128;5.434;2023-04-15T09:07:19;4.30;;;2.10;;
71715;SDS011;59568;52.128;5.434;2023-04-15T09:09:46;5.03;;;2.83;;
71715;SDS011;59568;52.128;5.434;2023-04-15T09:12:14;5.47;;;2.33;;
71715;SDS011;59568;52.128;5.434;2023-04-15T09:14:44;5.07;;;2.85;;
71715;SDS011;59568;52.128;5.434;2023-04-15T09:17:12;7.75;;;2.55;;
71715;SDS011;59568;52.128;5.434;2023-04-15T09:19:44;5.30;;;2.65;;
71715;SDS011;59568;52.128;5.434;2023-04-15T09:22:10;5.17;;;2.47;;
71715;SDS011;59568;52.128;5.434;2023-04-15T09:24:39;5.07;;;2.13;;
71715;SDS011;59568;52.128;5.434;2023-04-15T09:27:07;5.10;;;2.30;;
71715;SDS011;59568;52.128;5.434;2023-04-15T09:29:35;3.72;;;2.05;;
71715;SDS011;59568;52.128;5.434;2023-04-15T09:32:09;3.70;;;2.08;;
71715;SDS011;59568;52.128;5.434;2023-04-15T09:34:37;4.27;;;2.10;;
71715;SDS011;59568;52.128;5.434;2023-04-15T09:37:04;3.30;;;1.90;;
71715;SDS011;59568;52.128;5.434;2023-04-15T09:39:48;3.83;;;1.90;;
71715;SDS011;59568;52.128;5.434;2023-04-15T09:42:17;3.70;;;1.70;;
71715;SDS011;59568;52.128;5.434;2023-04-15T09:44:50;4.38;;;2.17;;
71715;SDS011;59568;52.128;5.434;2023-04-15T09:47:27;3.53;;;2.03;;
71715;SDS011;59568;52.128;5.434;2023-04-15T09:49:56;4.30;;;1.98;;
71715;SDS011;59568;52.128;5.434;2023-04-15T09:52:24;3.90;;;2.35;;
71715;SDS011;59568;52.128;5.434;2023-04-15T09:54:52;3.75;;;2.13;;
71715;SDS011;59568;52.128;5.434;2023-04-15T09:57:23;5.03;;;2.10;;
71715;SDS011;59568;52.128;5.434;2023-04-15T09:59:50;6.10;;;2.37;;
71715;SDS011;59568;52.128;5.434;2023-04-15T10:02:17;4.78;;;1.60;;
71715;SDS011;59568;52.128;5.434;2023-04-15T10:04:48;3.95;;;1.65;;
71715;SDS011;59568;52.128;5.434;2023-04-15T10:07:18;4.15;;;1.80;;
71715;SDS011;59568;52.128;5.434;2023-04-15T10:09:48;4.05;;;2.15;;
71715;SDS011;59568;52.128;5.434;2023-04-15T10:12:18;3.97;;;2.23;;
71715;SDS011;59568;52.128;5.434;2023-04-15T10:14:52;3.83;;;1.90;;
71715;SDS011;59568;52.128;5.434;2023-04-15T10:17:26;2.90;;;1.20;;
71715;SDS011;59568;52.128;5.434;2023-04-15T10:19:59;2.58;;;1.30;;
71715;SDS011;59568;52.128;5.434;2023-04-15T10:22:31;2.38;;;1.25;;
71715;SDS011;59568;52.128;5.434;2023-04-15T10:24:58;3.43;;;1.47;;
71715;SDS011;59568;52.128;5.434;2023-04-15T10:27:26;2.75;;;1.40;;
71715;SDS011;59568;52.128;5.434;2023-04-15T10:29:55;3.17;;;1.60;;
71715;SDS011;59568;52.128;5.434;2023-04-15T10:32:23;4.25;;;1.65;;
71715;SDS011;59568;52.128;5.434;2023-04-15T10:34:50;2.85;;;1.58;;
71715;SDS011;59568;52.128;5.434;2023-04-15T10:37:21;3.37;;;1.90;;
71715;SDS011;59568;52.128;5.434;2023-04-15T10:39:58;2.75;;;1.60;;
71715;SDS011;59568;52.128;5.434;2023-04-15T10:42:26;3.25;;;1.42;;
71715;SDS011;59568;52.128;5.434;2023-04-15T10:45:00;2.45;;;1.50;;
71715;SDS011;59568;52.128;5.434;2023-04-15T10:47:27;3.72;;;2.10;;
71715;SDS011;59568;52.128;5.434;2023-04-15T10:49:58;3.27;;;1.93;;
71715;SDS011;59568;52.128;5.434;2023-04-15T10:52:28;3.35;;;1.65;;
71715;SDS011;59568;52.128;5.434;2023-04-15T10:55:14;2.20;;;1.33;;
71715;SDS011;59568;52.128;5.434;2023-04-15T10:57:48;2.88;;;1.30;;
71715;SDS011;59568;52.128;5.434;2023-04-15T11:00:19;2.83;;;1.48;;
71715;SDS011;59568;52.128;5.434;2023-04-15T11:02:54;2.73;;;1.60;;
71715;SDS011;59568;52.128;5.434;2023-04-15T11:05:50;2.70;;;1.23;;
71715;SDS011;59568;52.128;5.434;2023-04-15T11:08:18;3.10;;;1.40;;
71715;SDS011;59568;52.128;5.434;2023-04-15T11:13:16;2.33;;;1.20;;
71715;SDS011;59568;52.128;5.434;2023-04-15T11:15:47;2.70;;;1.30;;
71715;SDS011;59568;52.128;5.434;2023-04-15T11:18:18;3.97;;;1.63;;
71715;SDS011;59568;52.128;5.434;2023-04-15T11:20:48;2.17;;;1.45;;
71715;SDS011;59568;52.128;5.434;2023-04-15T11:23:30;2.22;;;1.20;;
71715;SDS011;59568;52.128;5.434;2023-04-15T11:26:00;2.38;;;1.00;;
71715;SDS011;59568;52.128;5.434;2023-04-15T11:28:31;3.20;;;1.40;;
71715;SDS011;59568;52.128;5.434;2023-04-15T11:31:04;3.85;;;1.00;;
71715;SDS011;59568;52.128;5.434;2023-04-15T11:33:44;3.90;;;0.88;;
71715;SDS011;59568;52.128;5.434;2023-04-15T11:36:13;3.35;;;1.40;;
71715;SDS011;59568;52.128;5.434;2023-04-15T11:38:43;2.40;;;1.20;;
71715;SDS011;59568;52.128;5.434;2023-04-15T11:41:12;2.80;;;1.13;;
71715;SDS011;59568;52.128;5.434;2023-04-15T11:43:39;3.60;;;1.15;;
71715;SDS011;59568;52.128;5.434;2023-04-15T11:46:06;2.10;;;1.02;;
71715;SDS011;59568;52.128;5.434;2023-04-15T11:48:34;2.15;;;0.90;;
71715;SDS011;59568;52.128;5.434;2023-04-15T11:51:02;3.33;;;0.90;;
71715;SDS011;59568;52.128;5.434;2023-04-15T11:56:21;2.80;;;0.75;;
71715;SDS011;59568;52.128;5.434;2023-04-15T11:58:54;3.70;;;1.10;;
71715;SDS011;59568;52.128;5.434;2023-04-15T12:03:57;2.50;;;1.30;;
71715;SDS011;59568;52.128;5.434;2023-04-15T12:06:33;2.40;;;1.07;;
71715;SDS011;59568;52.128;5.434;2023-04-15T12:09:02;2.28;;;1.05;;
71715;SDS011;59568;52.128;5.434;2023-04-15T12:11:38;2.28;;;1.17;;
71715;SDS011;59568;52.128;5.434;2023-04-15T12:14:09;3.83;;;1.10;;
71715;SDS011;59568;52.128;5.434;2023-04-15T12:16:57;2.00;;;0.73;;
71715;SDS011;59568;52.128;5.434;2023-04-15T12:19:37;3.10;;;1.07;;
71715;SDS011;59568;52.128;5.434;2023-04-15T12:22:11;3.38;;;0.75;;
71715;SDS011;59568;52.128;5.434;2023-04-15T12:24:40;2.25;;;0.70;;
71715;SDS011;59568;52.128;5.434;2023-04-15T12:27:13;2.10;;;0.90;;
71715;SDS011;59568;52.128;5.434;2023-04-15T12:29:41;1.75;;;0.70;;
71715;SDS011;59568;52.128;5.434;2023-04-15T12:32:10;2.00;;;0.40;;
71715;SDS011;59568;52.128;5.434;2023-04-15T12:34:56;2.97;;;0.60;;
71715;SDS011;59568;52.128;5.434;2023-04-15T12:37:23;2.67;;;0.70;;
71715;SDS011;59568;52.128;5.434;2023-04-15T12:39:51;1.40;;;0.55;;
71715;SDS011;59568;52.128;5.434;2023-04-15T12:42:19;2.40;;;0.57;;
71715;SDS011;59568;52.128;5.434;2023-04-15T12:44:48;2.87;;;0.70;;
71715;SDS011;59568;52.128;5.434;2023-04-15T12:47:15;2.28;;;0.60;;
71715;SDS011;59568;52.128;5.434;2023-04-15T12:49:42;1.75;;;0.70;;
71715;SDS011;59568;52.128;5.434;2023-04-15T12:52:09;1.40;;;0.45;;
71715;SDS011;59568;52.128;5.434;2023-04-15T12:54:35;4.10;;;1.13;;
71715;SDS011;59568;52.128;5.434;2023-04-15T12:57:02;2.47;;;0.90;;
71715;SDS011;59568;52.128;5.434;2023-04-15T12:59:33;2.55;;;0.80;;
71715;SDS011;59568;52.128;5.434;2023-04-15T13:02:00;2.17;;;0.57;;
71715;SDS011;59568;52.128;5.434;2023-04-15T13:04:28;2.50;;;0.50;;
71715;SDS011;59568;52.128;5.434;2023-04-15T13:06:57;1.73;;;0.70;;
71715;SDS011;59568;52.128;5.434;2023-04-15T13:09:23;1.27;;;0.73;;
71715;SDS011;59568;52.128;5.434;2023-04-15T13:11:51;2.35;;;0.90;;
71715;SDS011;59568;52.128;5.434;2023-04-15T13:14:18;2.95;;;0.82;;
71715;SDS011;59568;52.128;5.434;2023-04-15T13:16:45;4.03;;;0.85;;
71715;SDS011;59568;52.128;5.434;2023-04-15T13:19:12;2.22;;;0.70;;
71715;SDS011;59568;52.128;5.434;2023-04-15T13:21:39;2.20;;;0.80;;
71715;SDS011;59568;52.128;5.434;2023-04-15T13:24:06;2.13;;;0.88;;
71715;SDS011;59568;52.128;5.434;2023-04-15T13:26:34;2.00;;;0.70;;
71715;SDS011;59568;52.128;5.434;2023-04-15T13:29:01;2.35;;;0.73;;
71715;SDS011;59568;52.128;5.434;2023-04-15T13:31:28;2.00;;;0.55;;
71715;SDS011;59568;52.128;5.434;2023-04-15T13:33:55;3.03;;;0.70;;
71715;SDS011;59568;52.128;5.434;2023-04-15T13:36:23;3.78;;;0.82;;
71715;SDS011;59568;52.128;5.434;2023-04-15T13:38:50;3.28;;;0.60;;
71715;SDS011;59568;52.128;5.434;2023-04-15T13:41:17;2.78;;;0.80;;
71715;SDS011;59568;52.128;5.434;2023-04-15T13:43:45;3.50;;;0.65;;
71715;SDS011;59568;52.128;5.434;2023-04-15T13:46:12;1.87;;;0.87;;
71715;SDS011;59568;52.128;5.434;2023-04-15T13:48:40;1.58;;;0.63;;
71715;SDS011;59568;52.128;5.434;2023-04-15T13:51:07;1.80;;;0.50;;
71715;SDS011;59568;52.128;5.434;2023-04-15T13:53:34;1.45;;;0.60;;
71715;SDS011;59568;52.128;5.434;2023-04-15T13:56:07;1.40;;;0.60;;
71715;SDS011;59568;52.128;5.434;2023-04-15T13:58:36;1.67;;;0.40;;
71715;SDS011;59568;52.128;5.434;2023-04-15T14:01:04;1.67;;;0.60;;
71715;SDS011;59568;52.128;5.434;2023-04-15T14:03:35;1.50;;;0.40;;
71715;SDS011;59568;52.128;5.434;2023-04-15T14:06:04;2.13;;;0.30;;
71715;SDS011;59568;52.128;5.434;2023-04-15T14:08:31;2.08;;;0.40;;
71715;SDS011;59568;52.128;5.434;2023-04-15T14:10:59;1.73;;;0.40;;
71715;SDS011;59568;52.128;5.434;2023-04-15T14:13:26;2.63;;;0.50;;
71715;SDS011;59568;52.128;5.434;2023-04-15T14:15:53;1.30;;;0.60;;
71715;SDS011;59568;52.128;5.434;2023-04-15T14:18:20;1.00;;;0.30;;
71715;SDS011;59568;52.128;5.434;2023-04-15T14:20:47;2.45;;;0.50;;
71715;SDS011;59568;52.128;5.434;2023-04-15T14:23:14;2.77;;;0.70;;
71715;SDS011;59568;52.128;5.434;2023-04-15T14:25:41;3.17;;;0.70;;
71715;SDS011;59568;52.128;5.434;2023-04-15T14:28:08;2.75;;;0.88;;
71715;SDS011;59568;52.128;5.434;2023-04-15T14:30:35;7.20;;;0.95;;
71715;SDS011;59568;52.128;5.434;2023-04-15T14:33:02;3.00;;;0.70;;
71715;SDS011;59568;52.128;5.434;2023-04-15T14:35:29;3.97;;;0.90;;
71715;SDS011;59568;52.128;5.434;2023-04-15T14:37:56;3.60;;;0.80;;
71715;SDS011;59568;52.128;5.434;2023-04-15T14:40:23;5.10;;;0.80;;
71715;SDS011;59568;52.128;5.434;2023-04-15T14:42:51;1.55;;;0.60;;
71715;SDS011;59568;52.128;5.434;2023-04-15T14:45:18;2.03;;;0.80;;
71715;SDS011;59568;52.128;5.434;2023-04-15T14:47:45;2.67;;;0.60;;
71715;SDS011;59568;52.128;5.434;2023-04-15T14:50:12;3.70;;;0.52;;
71715;SDS011;59568;52.128;5.434;2023-04-15T14:52:39;2.05;;;0.70;;
71715;SDS011;59568;52.128;5.434;2023-04-15T14:55:07;3.30;;;0.60;;
71715;SDS011;59568;52.128;5.434;2023-04-15T14:57:39;3.50;;;0.82;;
71715;SDS011;59568;52.128;5.434;2023-04-15T15:00:07;3.50;;;0.60;;
71715;SDS011;59568;52.128;5.434;2023-04-15T15:02:39;4.93;;;0.50;;